sensor_id;sensor_type;location;lat;lon;timestamp;P1;durP1;ratioP1;P2;durP2;ratioP2
7961;SDS011;4026;43.652;24.906;2022-11-03T00:00:09;2.00;;;1.30;;
7961;SDS011;4026;43.652;24.906;2022-11-03T00:02:37;2.53;;;1.23;;
7961;SDS011;4026;43.652;24.906;2022-11-03T00:05:04;1.23;;;1.00;;
7961;SDS011;4026;43.652;24.906;2022-11-03T00:07:45;1.80;;;1.20;;
7961;SDS011;4026;43.652;24.906;2022-11-03T00:10:13;1.87;;;1.20;;
7961;SDS011;4026;43.652;24.906;2022-11-03T00:12:40;1.40;;;1.20;;
7961;SDS011;4026;43.652;24.906;2022-11-03T00:15:07;1.43;;;1.30;;
7961;SDS011;4026;43.652;24.906;2022-11-03T00:17:34;1.37;;;1.27;;
7961;SDS011;4026;43.652;24.906;2022-11-03T00:20:01;4.13;;;0.80;;
7961;SDS011;4026;43.652;24.906;2022-11-03T00:22:28;1.17;;;1.07;;
7961;SDS011;4026;43.652;24.906;2022-11-03T00:24:57;1.43;;;1.03;;
7961;SDS011;4026;43.652;24.906;2022-11-03T00:27:26;1.40;;;0.90;;
7961;SDS011;4026;43.652;24.906;2022-11-03T00:29:52;1.63;;;1.30;;
7961;SDS011;4026;43.652;24.906;2022-11-03T00:32:19;1.60;;;1.37;;
7961;SDS011;4026;43.652;24.906;2022-11-03T00:34:46;1.80;;;1.57;;
7961;SDS011;4026;43.652;24.906;2022-11-03T00:37:13;2.03;;;1.40;;
7961;SDS011;4026;43.652;24.906;2022-11-03T00:39:39;1.10;;;1.00;;
7961;SDS011;4026;43.652;24.906;2022-11-03T00:42:06;1.57;;;1.10;;
7961;SDS011;4026;43.652;24.906;2022-11-03T00:44:34;3.67;;;1.37;;
7961;SDS011;4026;43.652;24.906;2022-11-03T00:47:01;3.13;;;1.57;;
7961;SDS011;4026;43.652;24.906;2022-11-03T00:49:28;2.70;;;1.30;;
7961;SDS011;4026;43.652;24.906;2022-11-03T00:51:55;1.10;;;1.00;;
7961;SDS011;4026;43.652;24.906;2022-11-03T00:54:21;3.33;;;1.93;;
7961;SDS011;4026;43.652;24.906;2022-11-03T00:56:48;2.00;;;1.33;;
7961;SDS011;4026;43.652;24.906;2022-11-03T00:59:15;1.93;;;1.33;;
7961;SDS011;4026;43.652;24.906;2022-11-03T01:01:43;1.57;;;1.47;;
7961;SDS011;4026;43.652;24.906;2022-11-03T01:04:10;1.43;;;1.33;;
7961;SDS011;4026;43.652;24.906;2022-11-03T01:06:56;1.50;;;1.27;;
7961;SDS011;4026;43.652;24.906;2022-11-03T01:09:24;4.80;;;1.27;;
7961;SDS011;4026;43.652;24.906;2022-11-03T01:11:55;3.37;;;1.57;;
7961;SDS011;4026;43.652;24.906;2022-11-03T01:14:24;1.90;;;1.33;;
7961;SDS011;4026;43.652;24.906;2022-11-03T01:16:53;1.03;;;1.03;;
7961;SDS011;4026;43.652;24.906;2022-11-03T01:19:20;3.23;;;1.37;;
7961;SDS011;4026;43.652;24.906;2022-11-03T01:21:47;3.37;;;1.23;;
7961;SDS011;4026;43.652;24.906;2022-11-03T01:24:14;1.80;;;1.60;;
7961;SDS011;4026;43.652;24.906;2022-11-03T01:26:41;1.50;;;1.20;;
7961;SDS011;4026;43.652;24.906;2022-11-03T01:29:08;1.13;;;1.03;;
7961;SDS011;4026;43.652;24.906;2022-11-03T01:31:35;2.03;;;1.67;;
7961;SDS011;4026;43.652;24.906;2022-11-03T01:34:03;1.60;;;1.00;;
7961;SDS011;4026;43.652;24.906;2022-11-03T01:36:30;3.13;;;1.63;;
7961;SDS011;4026;43.652;24.906;2022-11-03T01:38:56;1.90;;;1.37;;
7961;SDS011;4026;43.652;24.906;2022-11-03T01:41:24;3.43;;;1.30;;
7961;SDS011;4026;43.652;24.906;2022-11-03T01:47:02;1.27;;;1.07;;
7961;SDS011;4026;43.652;24.906;2022-11-03T01:49:37;2.03;;;1.20;;
7961;SDS011;4026;43.652;24.906;2022-11-03T01:52:08;2.20;;;1.37;;
7961;SDS011;4026;43.652;24.906;2022-11-03T01:54:39;1.70;;;1.47;;
7961;SDS011;4026;43.652;24.906;2022-11-03T01:57:10;0.97;;;0.77;;
7961;SDS011;4026;43.652;24.906;2022-11-03T01:59:42;0.80;;;0.80;;
7961;SDS011;4026;43.652;24.906;2022-11-03T02:02:10;2.87;;;1.70;;
7961;SDS011;4026;43.652;24.906;2022-11-03T02:04:38;1.87;;;1.40;;
7961;SDS011;4026;43.652;24.906;2022-11-03T02:07:08;1.77;;;1.27;;
7961;SDS011;4026;43.652;24.906;2022-11-03T02:09:43;1.77;;;1.63;;
7961;SDS011;4026;43.652;24.906;2022-11-03T02:12:09;1.27;;;0.73;;
7961;SDS011;4026;43.652;24.906;2022-11-03T02:14:38;1.17;;;0.90;;
7961;SDS011;4026;43.652;24.906;2022-11-03T02:17:09;2.27;;;1.53;;
7961;SDS011;4026;43.652;24.906;2022-11-03T02:19:41;1.90;;;1.70;;
7961;SDS011;4026;43.652;24.906;2022-11-03T02:22:19;2.00;;;1.07;;
7961;SDS011;4026;43.652;24.906;2022-11-03T02:24:56;0.43;;;0.43;;
7961;SDS011;4026;43.652;24.906;2022-11-03T02:27:29;2.23;;;2.03;;
7961;SDS011;4026;43.652;24.906;2022-11-03T02:29:56;4.27;;;2.97;;
7961;SDS011;4026;43.652;24.906;2022-11-03T02:32:24;3.23;;;2.63;;
7961;SDS011;4026;43.652;24.906;2022-11-03T02:34:59;1.87;;;1.73;;
7961;SDS011;4026;43.652;24.906;2022-11-03T02:37:30;2.60;;;2.37;;
7961;SDS011;4026;43.652;24.906;2022-11-03T02:40:02;4.57;;;3.23;;
7961;SDS011;4026;43.652;24.906;2022-11-03T02:42:33;4.90;;;3.40;;
7961;SDS011;4026;43.652;24.906;2022-11-03T02:45:03;3.53;;;3.17;;
7961;SDS011;4026;43.652;24.906;2022-11-03T02:47:33;4.67;;;2.30;;
7961;SDS011;4026;43.652;24.906;2022-11-03T02:50:03;5.10;;;1.60;;
7961;SDS011;4026;43.652;24.906;2022-11-03T02:52:35;3.00;;;1.60;;
7961;SDS011;4026;43.652;24.906;2022-11-03T02:55:06;3.67;;;2.50;;
7961;SDS011;4026;43.652;24.906;2022-11-03T02:57:40;5.60;;;2.93;;
7961;SDS011;4026;43.652;24.906;2022-11-03T03:00:11;1.67;;;1.07;;
7961;SDS011;4026;43.652;24.906;2022-11-03T03:02:43;0.90;;;0.90;;
7961;SDS011;4026;43.652;24.906;2022-11-03T03:05:18;2.40;;;1.90;;
7961;SDS011;4026;43.652;24.906;2022-11-03T03:07:51;2.33;;;1.83;;
7961;SDS011;4026;43.652;24.906;2022-11-03T03:10:22;1.37;;;1.27;;
7961;SDS011;4026;43.652;24.906;2022-11-03T03:12:53;2.77;;;2.00;;
7961;SDS011;4026;43.652;24.906;2022-11-03T03:15:24;3.97;;;2.37;;
7961;SDS011;4026;43.652;24.906;2022-11-03T03:17:57;2.97;;;2.63;;
7961;SDS011;4026;43.652;24.906;2022-11-03T03:20:31;2.87;;;2.27;;
7961;SDS011;4026;43.652;24.906;2022-11-03T03:23:06;2.07;;;1.80;;
7961;SDS011;4026;43.652;24.906;2022-11-03T03:25:39;1.40;;;1.30;;
7961;SDS011;4026;43.652;24.906;2022-11-03T03:28:10;2.57;;;1.80;;
7961;SDS011;4026;43.652;24.906;2022-11-03T03:30:42;3.20;;;1.50;;
7961;SDS011;4026;43.652;24.906;2022-11-03T03:33:11;2.10;;;1.47;;
7961;SDS011;4026;43.652;24.906;2022-11-03T03:35:41;1.63;;;1.33;;
7961;SDS011;4026;43.652;24.906;2022-11-03T03:38:14;1.87;;;1.67;;
7961;SDS011;4026;43.652;24.906;2022-11-03T03:40:45;1.90;;;1.13;;
7961;SDS011;4026;43.652;24.906;2022-11-03T03:43:17;2.40;;;1.77;;
7961;SDS011;4026;43.652;24.906;2022-11-03T03:45:47;1.40;;;1.30;;
7961;SDS011;4026;43.652;24.906;2022-11-03T03:48:17;1.20;;;1.13;;
7961;SDS011;4026;43.652;24.906;2022-11-03T03:50:45;1.43;;;1.33;;
7961;SDS011;4026;43.652;24.906;2022-11-03T03:53:14;1.60;;;1.50;;
7961;SDS011;4026;43.652;24.906;2022-11-03T03:55:45;2.67;;;1.80;;
7961;SDS011;4026;43.652;24.906;2022-11-03T03:58:13;1.57;;;1.00;;
7961;SDS011;4026;43.652;24.906;2022-11-03T04:00:42;1.77;;;1.67;;
7961;SDS011;4026;43.652;24.906;2022-11-03T04:03:11;2.33;;;1.30;;
7961;SDS011;4026;43.652;24.906;2022-11-03T04:05:41;2.13;;;1.27;;
7961;SDS011;4026;43.652;24.906;2022-11-03T04:08:08;2.20;;;1.40;;
7961;SDS011;4026;43.652;24.906;2022-11-03T04:10:35;2.17;;;1.90;;
7961;SDS011;4026;43.652;24.906;2022-11-03T04:13:02;3.37;;;1.03;;
7961;SDS011;4026;43.652;24.906;2022-11-03T04:15:48;3.00;;;1.73;;
7961;SDS011;4026;43.652;24.906;2022-11-03T04:18:32;1.17;;;1.07;;
7961;SDS011;4026;43.652;24.906;2022-11-03T04:21:16;1.47;;;1.10;;
7961;SDS011;4026;43.652;24.906;2022-11-03T04:24:00;2.80;;;1.73;;
7961;SDS011;4026;43.652;24.906;2022-11-03T04:26:27;1.03;;;0.93;;
7961;SDS011;4026;43.652;24.906;2022-11-03T04:28:54;1.53;;;1.43;;
7961;SDS011;4026;43.652;24.906;2022-11-03T04:31:24;1.93;;;1.20;;
7961;SDS011;4026;43.652;24.906;2022-11-03T04:33:52;0.97;;;0.97;;
7961;SDS011;4026;43.652;24.906;2022-11-03T04:36:20;13.53;;;1.67;;
7961;SDS011;4026;43.652;24.906;2022-11-03T04:38:47;1.93;;;1.50;;
7961;SDS011;4026;43.652;24.906;2022-11-03T04:41:16;3.33;;;2.17;;
7961;SDS011;4026;43.652;24.906;2022-11-03T04:43:44;2.33;;;0.93;;
7961;SDS011;4026;43.652;24.906;2022-11-03T04:46:12;2.67;;;1.27;;
7961;SDS011;4026;43.652;24.906;2022-11-03T04:48:43;0.77;;;0.70;;
7961;SDS011;4026;43.652;24.906;2022-11-03T04:51:12;2.10;;;1.90;;
7961;SDS011;4026;43.652;24.906;2022-11-03T04:53:44;2.93;;;1.87;;
7961;SDS011;4026;43.652;24.906;2022-11-03T04:56:14;2.80;;;1.90;;
7961;SDS011;4026;43.652;24.906;2022-11-03T04:58:43;2.60;;;1.87;;
7961;SDS011;4026;43.652;24.906;2022-11-03T05:01:12;3.13;;;1.93;;
7961;SDS011;4026;43.652;24.906;2022-11-03T05:03:41;1.67;;;1.43;;
7961;SDS011;4026;43.652;24.906;2022-11-03T05:06:12;1.27;;;1.17;;
7961;SDS011;4026;43.652;24.906;2022-11-03T05:08:41;1.97;;;1.87;;
7961;SDS011;4026;43.652;24.906;2022-11-03T05:11:13;1.73;;;1.50;;
7961;SDS011;4026;43.652;24.906;2022-11-03T05:13:43;2.90;;;1.57;;
7961;SDS011;4026;43.652;24.906;2022-11-03T05:16:10;1.30;;;1.20;;
7961;SDS011;4026;43.652;24.906;2022-11-03T05:18:38;1.57;;;1.47;;
7961;SDS011;4026;43.652;24.906;2022-11-03T05:21:08;2.40;;;1.63;;
7961;SDS011;4026;43.652;24.906;2022-11-03T05:23:39;2.90;;;1.57;;
7961;SDS011;4026;43.652;24.906;2022-11-03T05:26:11;2.37;;;1.63;;
7961;SDS011;4026;43.652;24.906;2022-11-03T05:28:43;1.30;;;1.20;;
7961;SDS011;4026;43.652;24.906;2022-11-03T05:31:14;1.47;;;1.37;;
7961;SDS011;4026;43.652;24.906;2022-11-03T05:33:48;1.77;;;1.60;;
7961;SDS011;4026;43.652;24.906;2022-11-03T05:36:18;2.70;;;2.13;;
7961;SDS011;4026;43.652;24.906;2022-11-03T05:38:49;2.70;;;1.60;;
7961;SDS011;4026;43.652;24.906;2022-11-03T05:41:20;2.03;;;1.83;;
7961;SDS011;4026;43.652;24.906;2022-11-03T05:43:51;2.60;;;1.63;;
7961;SDS011;4026;43.652;24.906;2022-11-03T05:46:22;2.87;;;1.30;;
7961;SDS011;4026;43.652;24.906;2022-11-03T05:48:49;2.47;;;2.17;;
7961;SDS011;4026;43.652;24.906;2022-11-03T05:51:18;4.03;;;1.27;;
7961;SDS011;4026;43.652;24.906;2022-11-03T05:53:50;1.40;;;1.27;;
7961;SDS011;4026;43.652;24.906;2022-11-03T05:56:19;1.40;;;1.30;;
7961;SDS011;4026;43.652;24.906;2022-11-03T05:58:50;1.03;;;1.00;;
7961;SDS011;4026;43.652;24.906;2022-11-03T06:01:18;4.47;;;2.70;;
7961;SDS011;4026;43.652;24.906;2022-11-03T06:03:49;8.90;;;5.43;;
7961;SDS011;4026;43.652;24.906;2022-11-03T06:06:17;8.90;;;4.70;;
7961;SDS011;4026;43.652;24.906;2022-11-03T06:08:47;9.60;;;5.07;;
7961;SDS011;4026;43.652;24.906;2022-11-03T06:11:19;5.63;;;3.67;;
7961;SDS011;4026;43.652;24.906;2022-11-03T06:13:49;8.27;;;6.50;;
7961;SDS011;4026;43.652;24.906;2022-11-03T06:16:24;17.63;;;11.27;;
7961;SDS011;4026;43.652;24.906;2022-11-03T06:19:02;12.63;;;4.90;;
7961;SDS011;4026;43.652;24.906;2022-11-03T06:21:43;7.97;;;4.30;;
7961;SDS011;4026;43.652;24.906;2022-11-03T06:24:11;13.67;;;6.70;;
7961;SDS011;4026;43.652;24.906;2022-11-03T06:26:42;7.40;;;4.63;;
7961;SDS011;4026;43.652;24.906;2022-11-03T06:29:12;8.40;;;4.10;;
7961;SDS011;4026;43.652;24.906;2022-11-03T06:31:40;3.63;;;2.17;;
7961;SDS011;4026;43.652;24.906;2022-11-03T06:34:17;16.47;;;10.60;;
7961;SDS011;4026;43.652;24.906;2022-11-03T06:36:56;6.63;;;5.17;;
7961;SDS011;4026;43.652;24.906;2022-11-03T06:39:24;17.57;;;9.77;;
7961;SDS011;4026;43.652;24.906;2022-11-03T06:41:52;14.27;;;8.50;;
7961;SDS011;4026;43.652;24.906;2022-11-03T06:44:21;6.43;;;3.13;;
7961;SDS011;4026;43.652;24.906;2022-11-03T06:46:50;4.27;;;3.20;;
7961;SDS011;4026;43.652;24.906;2022-11-03T06:49:24;5.23;;;3.13;;
7961;SDS011;4026;43.652;24.906;2022-11-03T06:51:54;13.37;;;6.70;;
7961;SDS011;4026;43.652;24.906;2022-11-03T06:54:21;7.27;;;3.73;;
7961;SDS011;4026;43.652;24.906;2022-11-03T06:56:48;5.03;;;3.30;;
7961;SDS011;4026;43.652;24.906;2022-11-03T06:59:16;6.20;;;3.30;;
7961;SDS011;4026;43.652;24.906;2022-11-03T07:01:45;5.30;;;3.53;;
7961;SDS011;4026;43.652;24.906;2022-11-03T07:04:17;4.40;;;3.13;;
7961;SDS011;4026;43.652;24.906;2022-11-03T07:06:47;8.60;;;3.57;;
7961;SDS011;4026;43.652;24.906;2022-11-03T07:09:14;5.93;;;3.53;;
7961;SDS011;4026;43.652;24.906;2022-11-03T07:11:45;13.20;;;6.90;;
7961;SDS011;4026;43.652;24.906;2022-11-03T07:14:14;7.47;;;3.67;;
7961;SDS011;4026;43.652;24.906;2022-11-03T07:16:45;10.00;;;3.07;;
7961;SDS011;4026;43.652;24.906;2022-11-03T07:19:17;2.93;;;2.57;;
7961;SDS011;4026;43.652;24.906;2022-11-03T07:21:47;16.50;;;6.00;;
7961;SDS011;4026;43.652;24.906;2022-11-03T07:24:16;20.23;;;8.47;;
7961;SDS011;4026;43.652;24.906;2022-11-03T07:26:46;8.90;;;4.27;;
7961;SDS011;4026;43.652;24.906;2022-11-03T07:29:17;11.43;;;5.03;;
7961;SDS011;4026;43.652;24.906;2022-11-03T07:31:47;31.13;;;12.00;;
7961;SDS011;4026;43.652;24.906;2022-11-03T07:34:18;9.00;;;5.33;;
7961;SDS011;4026;43.652;24.906;2022-11-03T07:36:47;4.80;;;3.23;;
7961;SDS011;4026;43.652;24.906;2022-11-03T07:39:17;6.93;;;3.80;;
7961;SDS011;4026;43.652;24.906;2022-11-03T07:41:45;6.50;;;3.97;;
7961;SDS011;4026;43.652;24.906;2022-11-03T07:44:14;7.30;;;3.87;;
7961;SDS011;4026;43.652;24.906;2022-11-03T07:46:45;13.50;;;6.43;;
7961;SDS011;4026;43.652;24.906;2022-11-03T07:49:18;15.27;;;6.90;;
7961;SDS011;4026;43.652;24.906;2022-11-03T07:51:49;20.10;;;9.13;;
7961;SDS011;4026;43.652;24.906;2022-11-03T07:54:18;8.73;;;5.07;;
7961;SDS011;4026;43.652;24.906;2022-11-03T07:56:48;9.07;;;4.73;;
7961;SDS011;4026;43.652;24.906;2022-11-03T07:59:20;8.77;;;5.30;;
7961;SDS011;4026;43.652;24.906;2022-11-03T08:01:49;12.97;;;5.93;;
7961;SDS011;4026;43.652;24.906;2022-11-03T08:04:17;7.43;;;4.53;;
7961;SDS011;4026;43.652;24.906;2022-11-03T08:06:47;5.53;;;3.93;;
7961;SDS011;4026;43.652;24.906;2022-11-03T08:09:14;6.37;;;3.90;;
7961;SDS011;4026;43.652;24.906;2022-11-03T08:11:41;7.57;;;4.50;;
7961;SDS011;4026;43.652;24.906;2022-11-03T08:14:08;5.43;;;3.57;;
7961;SDS011;4026;43.652;24.906;2022-11-03T08:16:36;8.83;;;3.53;;
7961;SDS011;4026;43.652;24.906;2022-11-03T08:19:03;12.17;;;4.00;;
7961;SDS011;4026;43.652;24.906;2022-11-03T08:21:30;4.33;;;2.40;;
7961;SDS011;4026;43.652;24.906;2022-11-03T08:23:57;4.83;;;3.00;;
7961;SDS011;4026;43.652;24.906;2022-11-03T08:26:24;4.87;;;2.87;;
7961;SDS011;4026;43.652;24.906;2022-11-03T08:28:51;4.87;;;2.80;;
7961;SDS011;4026;43.652;24.906;2022-11-03T08:31:18;4.40;;;2.93;;
7961;SDS011;4026;43.652;24.906;2022-11-03T08:33:46;5.33;;;2.90;;
7961;SDS011;4026;43.652;24.906;2022-11-03T08:36:13;5.10;;;3.07;;
7961;SDS011;4026;43.652;24.906;2022-11-03T08:38:40;4.80;;;2.43;;
7961;SDS011;4026;43.652;24.906;2022-11-03T08:41:06;5.30;;;2.63;;
7961;SDS011;4026;43.652;24.906;2022-11-03T08:43:33;4.77;;;2.50;;
7961;SDS011;4026;43.652;24.906;2022-11-03T08:46:00;5.63;;;2.77;;
7961;SDS011;4026;43.652;24.906;2022-11-03T08:48:27;6.70;;;4.73;;
7961;SDS011;4026;43.652;24.906;2022-11-03T08:50:55;4.97;;;2.60;;
7961;SDS011;4026;43.652;24.906;2022-11-03T08:53:22;4.77;;;2.77;;
7961;SDS011;4026;43.652;24.906;2022-11-03T08:55:50;5.20;;;3.23;;
7961;SDS011;4026;43.652;24.906;2022-11-03T08:58:17;6.60;;;2.77;;
7961;SDS011;4026;43.652;24.906;2022-11-03T09:00:45;5.63;;;2.70;;
7961;SDS011;4026;43.652;24.906;2022-11-03T09:03:12;4.10;;;2.83;;
7961;SDS011;4026;43.652;24.906;2022-11-03T09:05:38;4.53;;;2.83;;
7961;SDS011;4026;43.652;24.906;2022-11-03T09:08:07;4.50;;;3.13;;
7961;SDS011;4026;43.652;24.906;2022-11-03T09:10:33;3.63;;;2.37;;
7961;SDS011;4026;43.652;24.906;2022-11-03T09:13:00;11.00;;;2.80;;
7961;SDS011;4026;43.652;24.906;2022-11-03T09:15:27;5.57;;;2.83;;
7961;SDS011;4026;43.652;24.906;2022-11-03T09:17:54;3.93;;;3.00;;
7961;SDS011;4026;43.652;24.906;2022-11-03T09:20:21;4.17;;;2.87;;
7961;SDS011;4026;43.652;24.906;2022-11-03T09:22:48;7.80;;;3.33;;
7961;SDS011;4026;43.652;24.906;2022-11-03T09:25:17;7.30;;;3.17;;
7961;SDS011;4026;43.652;24.906;2022-11-03T09:27:44;5.57;;;2.83;;
7961;SDS011;4026;43.652;24.906;2022-11-03T09:30:11;6.03;;;2.63;;
7961;SDS011;4026;43.652;24.906;2022-11-03T09:32:38;3.63;;;2.43;;
7961;SDS011;4026;43.652;24.906;2022-11-03T09:35:05;5.10;;;3.10;;
7961;SDS011;4026;43.652;24.906;2022-11-03T09:37:33;3.03;;;2.43;;
7961;SDS011;4026;43.652;24.906;2022-11-03T09:39:59;4.20;;;3.20;;
7961;SDS011;4026;43.652;24.906;2022-11-03T09:42:29;5.10;;;2.80;;
7961;SDS011;4026;43.652;24.906;2022-11-03T09:44:58;5.13;;;2.90;;
7961;SDS011;4026;43.652;24.906;2022-11-03T09:47:28;4.60;;;3.13;;
7961;SDS011;4026;43.652;24.906;2022-11-03T09:49:58;5.60;;;3.33;;
7961;SDS011;4026;43.652;24.906;2022-11-03T09:52:25;5.00;;;2.90;;
7961;SDS011;4026;43.652;24.906;2022-11-03T09:54:52;7.17;;;3.40;;
7961;SDS011;4026;43.652;24.906;2022-11-03T09:57:20;5.67;;;3.20;;
7961;SDS011;4026;43.652;24.906;2022-11-03T09:59:49;5.70;;;3.20;;
7961;SDS011;4026;43.652;24.906;2022-11-03T10:02:20;3.60;;;2.20;;
7961;SDS011;4026;43.652;24.906;2022-11-03T10:04:50;6.33;;;2.73;;
7961;SDS011;4026;43.652;24.906;2022-11-03T10:07:18;6.80;;;3.70;;
7961;SDS011;4026;43.652;24.906;2022-11-03T10:09:47;3.50;;;2.47;;
7961;SDS011;4026;43.652;24.906;2022-11-03T10:12:16;4.30;;;2.73;;
7961;SDS011;4026;43.652;24.906;2022-11-03T10:14:43;3.80;;;2.57;;
7961;SDS011;4026;43.652;24.906;2022-11-03T10:17:14;3.10;;;2.23;;
7961;SDS011;4026;43.652;24.906;2022-11-03T10:19:44;3.17;;;2.27;;
7961;SDS011;4026;43.652;24.906;2022-11-03T10:22:14;5.37;;;2.87;;
7961;SDS011;4026;43.652;24.906;2022-11-03T10:24:41;5.23;;;2.53;;
7961;SDS011;4026;43.652;24.906;2022-11-03T10:27:18;3.93;;;2.67;;
7961;SDS011;4026;43.652;24.906;2022-11-03T10:30:02;3.27;;;2.07;;
7961;SDS011;4026;43.652;24.906;2022-11-03T10:32:34;3.55;;;2.58;;
7961;SDS011;4026;43.652;24.906;2022-11-03T10:35:02;3.25;;;2.22;;
7961;SDS011;4026;43.652;24.906;2022-11-03T10:38:08;3.95;;;2.55;;
7961;SDS011;4026;43.652;24.906;2022-11-03T10:40:49;3.65;;;2.45;;
7961;SDS011;4026;43.652;24.906;2022-11-03T10:43:16;3.53;;;2.58;;
7961;SDS011;4026;43.652;24.906;2022-11-03T10:45:43;3.22;;;2.42;;
7961;SDS011;4026;43.652;24.906;2022-11-03T10:48:09;4.15;;;2.47;;
7961;SDS011;4026;43.652;24.906;2022-11-03T10:50:38;3.33;;;2.28;;
7961;SDS011;4026;43.652;24.906;2022-11-03T10:53:08;4.22;;;2.33;;
7961;SDS011;4026;43.652;24.906;2022-11-03T10:55:42;4.90;;;2.78;;
7961;SDS011;4026;43.652;24.906;2022-11-03T10:58:09;3.25;;;2.28;;
7961;SDS011;4026;43.652;24.906;2022-11-03T11:00:36;4.00;;;2.92;;
7961;SDS011;4026;43.652;24.906;2022-11-03T11:03:05;5.18;;;2.65;;
7961;SDS011;4026;43.652;24.906;2022-11-03T11:05:32;4.40;;;2.70;;
7961;SDS011;4026;43.652;24.906;2022-11-03T11:08:00;4.90;;;2.70;;
7961;SDS011;4026;43.652;24.906;2022-11-03T11:10:27;4.53;;;2.90;;
7961;SDS011;4026;43.652;24.906;2022-11-03T11:13:00;4.07;;;2.73;;
7961;SDS011;4026;43.652;24.906;2022-11-03T11:15:36;4.17;;;2.63;;
7961;SDS011;4026;43.652;24.906;2022-11-03T11:18:04;4.40;;;2.80;;
7961;SDS011;4026;43.652;24.906;2022-11-03T11:20:35;3.22;;;2.47;;
7961;SDS011;4026;43.652;24.906;2022-11-03T11:26:14;4.15;;;2.45;;
7961;SDS011;4026;43.652;24.906;2022-11-03T11:28:43;3.40;;;2.30;;
7961;SDS011;4026;43.652;24.906;2022-11-03T11:39:59;8.07;;;3.67;;
7961;SDS011;4026;43.652;24.906;2022-11-03T11:42:27;4.00;;;2.13;;
7961;SDS011;4026;43.652;24.906;2022-11-03T11:44:58;3.73;;;2.47;;
7961;SDS011;4026;43.652;24.906;2022-11-03T11:47:33;6.07;;;2.77;;
7961;SDS011;4026;43.652;24.906;2022-11-03T11:52:56;2.77;;;2.37;;
7961;SDS011;4026;43.652;24.906;2022-11-03T11:55:27;5.67;;;2.57;;
7961;SDS011;4026;43.652;24.906;2022-11-03T11:57:58;6.23;;;2.60;;
7961;SDS011;4026;43.652;24.906;2022-11-03T12:00:28;4.73;;;2.47;;
7961;SDS011;4026;43.652;24.906;2022-11-03T12:02:56;3.15;;;2.15;;
7961;SDS011;4026;43.652;24.906;2022-11-03T12:05:25;4.50;;;2.37;;
7961;SDS011;4026;43.652;24.906;2022-11-03T12:07:55;3.40;;;2.20;;
7961;SDS011;4026;43.652;24.906;2022-11-03T12:10:23;3.50;;;2.30;;
7961;SDS011;4026;43.652;24.906;2022-11-03T12:12:51;3.20;;;2.42;;
7961;SDS011;4026;43.652;24.906;2022-11-03T12:18:31;2.03;;;1.65;;
7961;SDS011;4026;43.652;24.906;2022-11-03T12:21:00;3.63;;;2.15;;
7961;SDS011;4026;43.652;24.906;2022-11-03T12:23:31;5.43;;;2.43;;
7961;SDS011;4026;43.652;24.906;2022-11-03T12:25:59;3.08;;;2.30;;
7961;SDS011;4026;43.652;24.906;2022-11-03T12:28:29;2.13;;;1.85;;
7961;SDS011;4026;43.652;24.906;2022-11-03T12:30:58;5.00;;;2.47;;
7961;SDS011;4026;43.652;24.906;2022-11-03T12:33:25;3.53;;;1.88;;
7961;SDS011;4026;43.652;24.906;2022-11-03T12:35:53;2.45;;;1.85;;
7961;SDS011;4026;43.652;24.906;2022-11-03T12:38:20;2.50;;;1.90;;
7961;SDS011;4026;43.652;24.906;2022-11-03T12:40:47;3.97;;;2.00;;
7961;SDS011;4026;43.652;24.906;2022-11-03T12:43:13;2.60;;;1.88;;
7961;SDS011;4026;43.652;24.906;2022-11-03T12:45:40;2.20;;;1.90;;
7961;SDS011;4026;43.652;24.906;2022-11-03T12:48:08;2.58;;;1.98;;
7961;SDS011;4026;43.652;24.906;2022-11-03T12:50:35;5.18;;;2.60;;
7961;SDS011;4026;43.652;24.906;2022-11-03T12:53:03;3.50;;;2.28;;
7961;SDS011;4026;43.652;24.906;2022-11-03T12:55:32;2.28;;;1.60;;
7961;SDS011;4026;43.652;24.906;2022-11-03T12:57:59;2.27;;;1.67;;
7961;SDS011;4026;43.652;24.906;2022-11-03T13:00:27;4.32;;;2.67;;
7961;SDS011;4026;43.652;24.906;2022-11-03T13:02:53;3.03;;;2.30;;
7961;SDS011;4026;43.652;24.906;2022-11-03T13:05:22;2.28;;;1.73;;
7961;SDS011;4026;43.652;24.906;2022-11-03T13:07:49;2.55;;;1.92;;
7961;SDS011;4026;43.652;24.906;2022-11-03T13:10:16;2.90;;;1.88;;
7961;SDS011;4026;43.652;24.906;2022-11-03T13:12:43;3.50;;;1.85;;
7961;SDS011;4026;43.652;24.906;2022-11-03T13:15:10;2.67;;;1.70;;
7961;SDS011;4026;43.652;24.906;2022-11-03T13:17:40;2.00;;;1.80;;
7961;SDS011;4026;43.652;24.906;2022-11-03T13:20:07;4.13;;;2.10;;
7961;SDS011;4026;43.652;24.906;2022-11-03T13:22:36;3.03;;;2.03;;
7961;SDS011;4026;43.652;24.906;2022-11-03T13:25:04;2.57;;;1.90;;
7961;SDS011;4026;43.652;24.906;2022-11-03T13:27:32;3.90;;;1.90;;
7961;SDS011;4026;43.652;24.906;2022-11-03T13:29:59;23.37;;;10.83;;
7961;SDS011;4026;43.652;24.906;2022-11-03T13:32:26;10.03;;;4.77;;
7961;SDS011;4026;43.652;24.906;2022-11-03T13:34:53;2.80;;;2.10;;
7961;SDS011;4026;43.652;24.906;2022-11-03T13:37:20;5.40;;;2.80;;
7961;SDS011;4026;43.652;24.906;2022-11-03T13:39:48;4.10;;;2.47;;
7961;SDS011;4026;43.652;24.906;2022-11-03T13:42:15;3.93;;;2.20;;
7961;SDS011;4026;43.652;24.906;2022-11-03T13:44:41;3.67;;;2.30;;
7961;SDS011;4026;43.652;24.906;2022-11-03T13:47:08;3.23;;;2.33;;
7961;SDS011;4026;43.652;24.906;2022-11-03T13:49:35;2.80;;;2.07;;
7961;SDS011;4026;43.652;24.906;2022-11-03T13:52:02;3.07;;;1.77;;
7961;SDS011;4026;43.652;24.906;2022-11-03T13:54:29;3.77;;;2.77;;
7961;SDS011;4026;43.652;24.906;2022-11-03T13:56:57;3.57;;;2.00;;
7961;SDS011;4026;43.652;24.906;2022-11-03T13:59:23;4.00;;;2.53;;
7961;SDS011;4026;43.652;24.906;2022-11-03T14:01:51;2.63;;;2.37;;
7961;SDS011;4026;43.652;24.906;2022-11-03T14:04:17;4.50;;;2.30;;
7961;SDS011;4026;43.652;24.906;2022-11-03T14:06:44;5.43;;;3.17;;
7961;SDS011;4026;43.652;24.906;2022-11-03T14:09:11;3.07;;;2.30;;
7961;SDS011;4026;43.652;24.906;2022-11-03T14:11:38;4.53;;;2.67;;
7961;SDS011;4026;43.652;24.906;2022-11-03T14:14:23;5.53;;;3.37;;
7961;SDS011;4026;43.652;24.906;2022-11-03T14:16:50;5.17;;;2.27;;
7961;SDS011;4026;43.652;24.906;2022-11-03T14:19:17;6.77;;;3.37;;
7961;SDS011;4026;43.652;24.906;2022-11-03T14:21:44;11.13;;;4.20;;
7961;SDS011;4026;43.652;24.906;2022-11-03T14:24:10;6.40;;;3.10;;
7961;SDS011;4026;43.652;24.906;2022-11-03T14:26:37;6.13;;;3.60;;
7961;SDS011;4026;43.652;24.906;2022-11-03T14:29:04;3.97;;;2.43;;
7961;SDS011;4026;43.652;24.906;2022-11-03T14:31:32;6.33;;;3.20;;
7961;SDS011;4026;43.652;24.906;2022-11-03T14:33:59;4.37;;;2.57;;
7961;SDS011;4026;43.652;24.906;2022-11-03T14:36:26;3.67;;;2.53;;
7961;SDS011;4026;43.652;24.906;2022-11-03T14:38:53;3.60;;;2.17;;
7961;SDS011;4026;43.652;24.906;2022-11-03T14:41:20;4.07;;;2.50;;
7961;SDS011;4026;43.652;24.906;2022-11-03T14:44:04;4.37;;;2.60;;
7961;SDS011;4026;43.652;24.906;2022-11-03T14:46:32;20.77;;;10.43;;
7961;SDS011;4026;43.652;24.906;2022-11-03T14:48:59;25.33;;;11.47;;
7961;SDS011;4026;43.652;24.906;2022-11-03T14:51:26;32.67;;;13.43;;
7961;SDS011;4026;43.652;24.906;2022-11-03T14:53:53;24.10;;;12.43;;
7961;SDS011;4026;43.652;24.906;2022-11-03T14:56:21;27.10;;;14.40;;
7961;SDS011;4026;43.652;24.906;2022-11-03T14:58:48;27.63;;;12.50;;
7961;SDS011;4026;43.652;24.906;2022-11-03T15:01:16;24.23;;;10.57;;
7961;SDS011;4026;43.652;24.906;2022-11-03T15:03:44;22.30;;;11.30;;
7961;SDS011;4026;43.652;24.906;2022-11-03T15:06:11;18.57;;;9.23;;
7961;SDS011;4026;43.652;24.906;2022-11-03T15:08:38;19.20;;;9.60;;
7961;SDS011;4026;43.652;24.906;2022-11-03T15:11:05;16.93;;;7.90;;
7961;SDS011;4026;43.652;24.906;2022-11-03T15:13:34;11.27;;;6.07;;
7961;SDS011;4026;43.652;24.906;2022-11-03T15:16:01;9.83;;;5.50;;
7961;SDS011;4026;43.652;24.906;2022-11-03T15:18:29;15.60;;;5.97;;
7961;SDS011;4026;43.652;24.906;2022-11-03T15:20:57;10.23;;;5.33;;
7961;SDS011;4026;43.652;24.906;2022-11-03T15:23:24;10.17;;;5.50;;
7961;SDS011;4026;43.652;24.906;2022-11-03T15:25:52;7.33;;;4.27;;
7961;SDS011;4026;43.652;24.906;2022-11-03T15:28:19;6.23;;;4.60;;
7961;SDS011;4026;43.652;24.906;2022-11-03T15:30:46;9.20;;;4.30;;
7961;SDS011;4026;43.652;24.906;2022-11-03T15:33:13;4.73;;;3.43;;